createdAt,value
2023-02-06T00:02:38.874Z,102042.23
2023-02-06T00:07:46.251Z,102038.46
2023-02-06T00:12:53.769Z,102043.92
2023-02-06T00:18:01.319Z,102042.34
2023-02-06T00:23:09.045Z,102029.67
2023-02-06T00:28:16.806Z,102028.20
2023-02-06T00:33:24.686Z,102029.52
2023-02-06T00:38:32.665Z,102027.67
2023-02-06T00:43:39.971Z,102025.87
2023-02-06T00:48:47.248Z,102032.63
2023-02-06T00:53:54.661Z,102031.77
2023-02-06T00:59:02.063Z,102025.15
2023-02-06T01:04:09.769Z,102013.66
2023-02-06T01:09:18.730Z,102005.45
2023-02-06T01:14:26.124Z,101999.86
2023-02-06T01:19:33.527Z,102001.30
2023-02-06T01:24:41.570Z,101988.58
2023-02-06T01:29:51.081Z,101988.78
2023-02-06T01:34:58.650Z,101988.60
2023-02-06T01:40:06.695Z,101991.91
2023-02-06T01:45:39.970Z,101984.48
2023-02-06T01:50:52.156Z,101982.22
2023-02-06T01:56:01.350Z,101973.41
2023-02-06T02:01:10.604Z,101967.48
2023-02-06T02:06:24.381Z,101966.80
2023-02-06T02:11:35.863Z,101967.94
2023-02-06T02:16:51.087Z,101967.34
2023-02-06T02:22:24.323Z,101956.95
2023-02-06T02:27:50.568Z,101953.89
2023-02-06T02:33:29.517Z,101945.50
2023-02-06T02:38:45.809Z,101942.80
2023-02-06T02:43:58.894Z,101942.25
2023-02-06T02:49:11.239Z,101940.61
2023-02-06T02:54:19.320Z,101937.77
2023-02-06T02:59:36.362Z,101938.51
2023-02-06T03:04:53.038Z,101936.16
2023-02-06T03:10:10.714Z,101927.90
2023-02-06T03:15:28.010Z,101929.02
2023-02-06T03:20:38.840Z,101926.46
2023-02-06T03:25:49.610Z,101920.48
2023-02-06T03:31:01.318Z,101911.02
2023-02-06T03:36:11.538Z,101927.63
2023-02-06T03:41:22.046Z,101925.34
2023-02-06T03:46:30.732Z,101921.02
2023-02-06T03:51:42.736Z,101918.92
2023-02-06T03:56:54.623Z,101918.84
2023-02-06T04:02:04.589Z,101925.39
2023-02-06T04:07:17.875Z,101924.27
2023-02-06T04:12:26.394Z,101917.00
2023-02-06T04:17:49.658Z,101916.29
2023-02-06T04:22:57.490Z,101921.02
2023-02-06T04:28:05.388Z,101920.55
2023-02-06T04:33:12.733Z,101925.25
2023-02-06T04:38:20.003Z,101929.02
2023-02-06T04:43:27.544Z,101925.39
2023-02-06T04:48:35.010Z,101928.32
2023-02-06T04:53:42.336Z,101929.11
2023-02-06T04:58:49.678Z,101934.20
2023-02-06T05:03:57.052Z,101929.86
2023-02-06T05:09:04.963Z,101920.58
2023-02-06T05:14:12.443Z,101927.94
2023-02-06T05:19:20.287Z,101928.21
2023-02-06T05:24:27.889Z,101926.71
2023-02-06T05:29:35.279Z,101933.31
2023-02-06T05:34:42.770Z,101932.31
2023-02-06T05:39:50.239Z,101931.67
2023-02-06T05:44:58.016Z,101942.65
2023-02-06T05:50:05.439Z,101948.08
2023-02-06T05:55:14.740Z,101952.27
2023-02-06T06:00:23.088Z,101955.09
2023-02-06T06:05:30.562Z,101956.73
2023-02-06T06:10:37.973Z,101957.34
2023-02-06T06:15:46.268Z,101956.95
2023-02-06T06:20:53.824Z,101961.64
2023-02-06T06:26:01.213Z,101959.36
2023-02-06T06:31:12.270Z,101954.72
2023-02-06T06:36:19.806Z,101957.11
2023-02-06T06:41:27.405Z,101956.90
2023-02-06T06:46:35.044Z,101953.23
2023-02-06T06:51:42.528Z,101959.06
2023-02-06T06:56:50.068Z,101963.60
2023-02-06T07:01:57.402Z,101963.34
2023-02-06T07:07:04.831Z,101968.67
2023-02-06T07:12:12.712Z,101967.25
2023-02-06T07:17:20.304Z,101968.52
2023-02-06T07:22:28.094Z,101967.16
2023-02-06T07:27:36.007Z,101967.33
2023-02-06T07:32:43.667Z,101970.32
2023-02-06T07:37:51.205Z,101969.59
2023-02-06T07:42:58.686Z,101968.77
2023-02-06T07:48:09.925Z,101977.04
2023-02-06T07:53:17.287Z,101982.08
2023-02-06T07:58:24.816Z,101985.40
2023-02-06T08:03:32.524Z,101990.45
2023-02-06T08:08:39.700Z,101982.33
2023-02-06T08:13:47.861Z,101985.39
2023-02-06T08:18:55.403Z,101988.58
2023-02-06T08:24:04.093Z,101985.41
2023-02-06T08:29:12.378Z,101986.55
2023-02-06T08:34:19.974Z,101986.83
2023-02-06T08:39:27.605Z,101993.86
2023-02-06T08:44:35.050Z,101990.43
2023-02-06T08:49:43.201Z,101991.73
2023-02-06T08:54:51.440Z,101987.87
2023-02-06T08:59:59.334Z,101988.28
2023-02-06T09:05:07.138Z,101990.77
2023-02-06T09:10:26.813Z,101994.00
2023-02-06T09:15:35.876Z,101993.20
2023-02-06T09:20:43.573Z,101991.59
2023-02-06T09:25:51.247Z,101993.27
2023-02-06T09:30:58.745Z,101990.27
2023-02-06T09:36:11.533Z,101982.73
2023-02-06T09:41:31.473Z,101981.34
2023-02-06T09:46:46.886Z,101984.05
2023-02-06T09:52:24.303Z,101994.10
2023-02-06T09:57:43.302Z,101989.08
2023-02-06T10:03:06.526Z,101990.85
2023-02-06T10:08:24.412Z,101995.33
2023-02-06T10:13:35.547Z,101997.54
2023-02-06T10:18:47.493Z,102004.42
2023-02-06T10:24:00.726Z,102015.69
2023-02-06T10:29:16.567Z,102016.59
2023-02-06T10:34:43.930Z,102003.77
2023-02-06T10:40:15.142Z,101999.87
2023-02-06T10:45:34.930Z,102000.77
2023-02-06T10:50:49.709Z,102003.80
2023-02-06T10:56:01.378Z,101997.88
2023-02-06T11:01:24.984Z,101995.56
2023-02-06T11:06:34.552Z,101998.55
2023-02-06T11:11:43.784Z,101994.02
2023-02-06T11:16:51.340Z,101988.48
2023-02-06T11:22:10.874Z,101978.66
2023-02-06T11:27:21.734Z,101991.93
2023-02-06T11:32:38.617Z,101994.34
2023-02-06T11:37:46.141Z,102001.17
2023-02-06T11:42:55.543Z,101995.61
2023-02-06T11:48:03.488Z,101984.88
2023-02-06T11:53:18.518Z,101975.85
2023-02-06T11:58:27.590Z,101973.94
2023-02-06T12:03:38.684Z,101978.89
2023-02-06T12:08:52.507Z,101973.89
2023-02-06T12:14:05.527Z,101965.73
2023-02-06T12:19:19.184Z,101974.59
2023-02-06T12:24:31.547Z,101971.02
2023-02-06T12:29:43.861Z,101961.81
2023-02-06T12:34:57.795Z,101953.23
2023-02-06T12:40:05.890Z,101954.71
2023-02-06T12:45:24.915Z,101951.45
2023-02-06T12:50:35.413Z,101949.64
2023-02-06T12:55:49.845Z,101947.29
2023-02-06T13:01:31.653Z,101945.41
2023-02-06T13:06:50.160Z,101946.33
2023-02-06T13:12:08.536Z,101941.68
2023-02-06T13:17:21.596Z,101932.70
2023-02-06T13:22:50.707Z,101929.17
2023-02-06T13:27:59.921Z,101931.08
2023-02-06T13:33:17.098Z,101933.44
2023-02-06T13:38:38.608Z,101933.55
2023-02-06T13:43:49.981Z,101933.62
2023-02-06T13:49:26.229Z,101937.20
2023-02-06T13:54:57.591Z,101942.83
2023-02-06T14:00:12.273Z,101943.74
2023-02-06T14:05:25.317Z,101938.67
2023-02-06T14:11:29.857Z,101955.47
2023-02-06T14:16:50.624Z,101961.30
2023-02-06T14:22:06.843Z,101967.42
2023-02-06T14:27:30.793Z,101974.23
2023-02-06T14:32:48.442Z,101979.25
2023-02-06T14:38:22.358Z,101973.98
2023-02-06T14:43:34.534Z,101977.05
2023-02-06T14:48:50.240Z,101978.81
2023-02-06T14:54:00.760Z,101984.63
2023-02-06T14:59:21.571Z,101987.63
2023-02-06T15:04:32.330Z,101985.75
2023-02-06T15:09:44.538Z,101997.13
2023-02-06T15:14:57.845Z,102001.89
2023-02-06T15:20:25.370Z,102001.59
2023-02-06T15:25:42.404Z,102007.18
2023-02-06T15:30:55.034Z,102008.48
2023-02-06T15:36:04.953Z,101999.98
2023-02-06T15:41:14.899Z,102020.30
2023-02-06T15:46:22.619Z,102034.80
2023-02-06T15:51:32.142Z,102045.16
2023-02-06T15:56:42.995Z,102050.04
2023-02-06T16:01:51.861Z,102053.15
2023-02-06T16:07:12.996Z,102045.09
2023-02-06T16:12:21.957Z,102039.92
2023-02-06T16:17:36.233Z,102050.39
2023-02-06T16:22:44.354Z,102054.44
2023-02-06T16:27:53.400Z,102057.07
2023-02-06T16:33:11.497Z,102059.91
2023-02-06T16:38:19.298Z,102061.88
2023-02-06T16:43:28.563Z,102053.35
2023-02-06T16:48:36.049Z,102059.54
2023-02-06T16:53:45.288Z,102063.20
2023-02-06T16:58:53.332Z,102058.06
2023-02-06T17:04:01.112Z,102060.95
2023-02-06T17:09:11.494Z,102056.34
2023-02-06T17:14:19.355Z,102059.00
2023-02-06T17:19:27.581Z,102059.76
2023-02-06T17:24:35.363Z,102050.15
2023-02-06T17:29:43.646Z,102046.06
2023-02-06T17:34:54.881Z,102044.92
2023-02-06T17:40:02.660Z,102056.30
2023-02-06T17:45:11.676Z,102057.63
2023-02-06T17:50:20.216Z,102062.20
2023-02-06T17:55:28.850Z,102060.41
2023-02-06T18:00:36.770Z,102065.21
2023-02-06T18:05:44.781Z,102063.48
2023-02-06T18:10:52.829Z,102059.04
2023-02-06T18:16:00.983Z,102066.98
2023-02-06T18:21:08.879Z,102061.62
2023-02-06T18:26:16.748Z,102065.24
2023-02-06T18:31:30.070Z,102084.06
2023-02-06T18:36:38.450Z,102091.32
2023-02-06T18:42:04.272Z,102085.85
2023-02-06T18:47:13.165Z,102079.42
2023-02-06T18:52:20.570Z,102085.66
2023-02-06T18:57:28.058Z,102089.83
2023-02-06T19:02:36.180Z,102089.65
2023-02-06T19:07:43.784Z,102089.48
2023-02-06T19:12:51.401Z,102089.10
2023-02-06T19:17:59.791Z,102083.37
2023-02-06T19:23:07.218Z,102087.71
2023-02-06T19:28:14.598Z,102087.33
2023-02-06T19:33:22.116Z,102084.36
2023-02-06T19:38:29.814Z,102080.38
2023-02-06T19:43:37.668Z,102073.79
2023-02-06T19:48:46.450Z,102084.73
2023-02-06T19:53:55.536Z,102076.58
2023-02-06T19:59:04.753Z,102074.96
2023-02-06T20:04:14.130Z,102089.72
2023-02-06T20:09:22.706Z,102084.25
2023-02-06T20:14:35.634Z,102083.64
2023-02-06T20:19:43.604Z,102084.80
2023-02-06T20:24:51.595Z,102081.59
2023-02-06T20:30:00.249Z,102091.86
2023-02-06T20:35:08.543Z,102078.38
2023-02-06T20:40:17.323Z,102076.02
2023-02-06T20:45:25.326Z,102078.91
2023-02-06T20:50:32.670Z,102080.17
2023-02-06T20:55:44.633Z,102078.99
2023-02-06T21:00:52.254Z,102078.95
2023-02-06T21:06:03.096Z,102073.88
2023-02-06T21:11:11.271Z,102080.92
2023-02-06T21:16:18.797Z,102085.46
2023-02-06T21:21:27.216Z,102098.84
2023-02-06T21:26:34.943Z,102102.62
2023-02-06T21:31:42.757Z,102098.08
2023-02-06T21:36:50.454Z,102092.41
2023-02-06T21:42:00.830Z,102099.08
2023-02-06T21:47:10.260Z,102095.56
2023-02-06T21:52:17.710Z,102100.40
2023-02-06T21:57:25.308Z,102103.89
2023-02-06T22:02:32.976Z,102100.20
2023-02-06T22:07:41.035Z,102104.70
2023-02-06T22:12:51.722Z,102106.56
2023-02-06T22:17:59.576Z,102107.91
2023-02-06T22:23:08.651Z,102112.89
2023-02-06T22:28:16.284Z,102117.36
2023-02-06T22:33:25.012Z,102113.00
2023-02-06T22:38:32.974Z,102112.83
2023-02-06T22:43:41.127Z,102108.33
2023-02-06T22:48:49.126Z,102107.30
2023-02-06T22:53:56.730Z,102104.55
2023-02-06T22:59:06.222Z,102107.17
2023-02-06T23:04:16.671Z,102094.85
2023-02-06T23:09:27.150Z,102079.18
2023-02-06T23:14:35.212Z,102072.14
2023-02-06T23:19:42.957Z,102067.46
2023-02-06T23:24:53.548Z,102063.31
2023-02-06T23:30:01.792Z,102063.98
2023-02-06T23:35:10.353Z,102071.39
2023-02-06T23:40:17.416Z,102079.05
2023-02-06T23:45:24.983Z,102079.95
2023-02-06T23:50:32.671Z,102077.55
2023-02-06T23:55:42.254Z,102066.73
